Flugplatz Wahlstedt

Für EDHW sind keine METAR/TAF Berichte vorhanden.
Es werden die Flugwettermeldungen vom Flugplatz Lübeck Blankensee in 37 km Entfernung angezeigt.

Bericht für EDHL

vom 20.10. um 17:50 UTC

Wind 6 kt aus 30°

Sichtweite 9000 m

schwacher Regen

aufgebrochene Bewölkung in 3600 ft

Temperatur 11.0°C

Taupunkt 10.0°C

Luftfeuchtigkeit 94%

Luftdruck 1012 hPa

EDHL 201750Z 03006KT 9000 -RA BKN036 11/10 Q1012

Prognose für EDHL

vom 20.10. um 00:00 UTC

Zwischen 00:00 UTC und 00:00 UTC

Wind 4 kt aus 50°

Sichtweite 8000 m

aufgelockert bewölkt in 2000 ft


Zwischen 00:00 UTC und 00:00 UTC zeitweise mit einer Wahrscheinlichkeit von 30%

aufgebrochene Bewölkung in 900 ft

TAF EDHL 201700Z 2018/2021 05004KT 8000 SCT020 PROB30 TEMPO 2018/2021 BKN009
Impressum